Time;durP1;ratioP1;P1;durP2;ratioP2;P2;SDS_P1;SDS_P2;PMS_P1;PMS_P2;Temp;Humidity;BMP_temperature;BMP_pressure;BME280_temperature;BME280_humidity;BME280_pressure;Samples;Min_cycle;Max_cycle;Signal;HPM_P1;HPM_P2
2023/07/28 00:00:31;;;;;;;;;;;;;;;22.77;82.05;99391.00;5030557;28;19921;-73
2023/07/28 00:02:56;;;;;;;;;;;;;;;22.84;81.06;99382.84;5029586;28;19928;-74
2023/07/28 00:05:21;;;;;;;;;;;;;;;22.74;83.07;99382.53;5010479;28;19932;-73
2023/07/28 00:07:47;;;;;;;;;;;;;;;22.78;82.53;99389.97;5030352;28;20030;-74
2023/07/28 00:10:12;;;;;;;;;;;;;;;22.80;82.57;99381.63;5026040;28;19963;-74
2023/07/28 00:12:38;;;;;;;;;;;;;;;22.79;83.47;99385.41;5009030;28;19927;-74
2023/07/28 00:15:03;;;;;;;;;;;;;;;22.78;83.30;99394.50;5027918;28;19929;-74
2023/07/28 00:17:29;;;;;;;;;;;;;;;22.79;83.38;99394.28;5031815;28;19921;-74
2023/07/28 00:19:54;;;;;;;;;;;;;;;22.79;83.33;99397.00;5025672;28;19929;-73
2023/07/28 00:22:20;;;;;;;;;;;;;;;22.80;83.42;99411.22;5029617;28;19927;-74
2023/07/28 00:24:45;;;;;;;;;;;;;;;22.75;84.67;99411.09;5028723;28;20016;-74
2023/07/28 00:27:12;;;;;;;;;;;;;;;22.73;84.78;99408.66;5028032;28;19956;-74
2023/07/28 00:29:38;;;;;;;;;;;;;;;22.69;86.24;99411.94;5029165;28;20061;-74
2023/07/28 00:32:03;;;;;;;;;;;;;;;22.70;85.18;99402.84;5030840;28;19927;-73
2023/07/28 00:34:29;;;;;;;;;;;;;;;22.69;85.22;99409.25;5017295;28;20020;-74
2023/07/28 00:36:54;;;;;;;;;;;;;;;22.65;85.56;99414.28;5028560;28;19925;-73
2023/07/28 00:39:20;;;;;;;;;;;;;;;22.67;85.55;99411.38;5029478;28;20031;-73
2023/07/28 00:41:45;;;;;;;;;;;;;;;22.67;86.13;99420.28;5028227;28;19921;-73
2023/07/28 00:44:10;;;;;;;;;;;;;;;22.56;87.57;99412.13;5030354;28;19921;-74
2023/07/28 00:46:36;;;;;;;;;;;;;;;22.49;88.48;99398.75;5028488;28;19921;-74
2023/07/28 00:49:03;;;;;;;;;;;;;;;22.42;88.03;99390.75;5027953;28;19928;-74
2023/07/28 00:51:29;;;;;;;;;;;;;;;22.39;88.58;99401.94;5030132;28;19921;-74
2023/07/28 00:53:55;;;;;;;;;;;;;;;22.34;88.50;99393.72;5025936;28;19932;-74
2023/07/28 00:56:21;;;;;;;;;;;;;;;22.29;89.26;99406.19;5029559;28;19966;-74
2023/07/28 00:58:47;;;;;;;;;;;;;;;22.27;89.47;99411.78;5025208;28;20372;-74
2023/07/28 01:01:12;;;;;;;;;;;;;;;22.17;90.14;99419.53;5024267;28;19925;-73
2023/07/28 01:03:38;;;;;;;;;;;;;;;22.15;89.94;99429.66;5025667;28;19925;-73
2023/07/28 01:06:22;;;;;;;;;;;;;;;22.16;89.61;99417.06;5027037;28;19971;-73
2023/07/28 01:08:48;;;;;;;;;;;;;;;22.03;91.02;99415.34;5025558;28;19925;-74
2023/07/28 01:11:14;;;;;;;;;;;;;;;21.85;91.98;99404.50;5031245;28;19951;-73
2023/07/28 01:13:39;;;;;;;;;;;;;;;21.67;92.99;99404.44;5024443;28;19955;-73
2023/07/28 01:16:06;;;;;;;;;;;;;;;21.57;93.44;99411.09;5030258;28;19987;-72
2023/07/28 01:18:31;;;;;;;;;;;;;;;21.60;93.16;99418.72;5027014;28;19968;-73
2023/07/28 01:21:00;;;;;;;;;;;;;;;21.63;93.37;99422.81;5028906;28;19959;-73
2023/07/28 01:23:44;;;;;;;;;;;;;;;21.49;95.33;99422.09;5024952;28;20278;-73
2023/07/28 01:26:10;;;;;;;;;;;;;;;21.31;96.21;99408.59;5026429;28;19917;-73
2023/07/28 01:28:36;;;;;;;;;;;;;;;21.31;97.21;99408.59;5026362;28;19975;-73
2023/07/28 01:31:03;;;;;;;;;;;;;;;21.22;98.22;99404.50;5029646;28;19987;-73
2023/07/28 01:33:28;;;;;;;;;;;;;;;21.02;100.00;99419.84;5023621;28;20339;-73
2023/07/28 01:35:54;;;;;;;;;;;;;;;21.02;100.00;99409.94;5019930;28;20421;-74
2023/07/28 01:38:19;;;;;;;;;;;;;;;21.01;100.00;99402.09;5027628;28;19921;-73
2023/07/28 01:40:45;;;;;;;;;;;;;;;21.13;99.84;99416.50;5025616;28;20612;-73
2023/07/28 01:43:10;;;;;;;;;;;;;;;21.15;99.76;99419.78;5013542;28;19921;-73
2023/07/28 01:45:36;;;;;;;;;;;;;;;21.17;99.66;99423.09;5029689;28;19921;-73
2023/07/28 01:48:01;;;;;;;;;;;;;;;21.17;99.85;99417.72;5028395;28;19928;-74
2023/07/28 01:50:27;;;;;;;;;;;;;;;21.19;100.00;99410.31;5027975;28;20004;-74
2023/07/28 01:52:52;;;;;;;;;;;;;;;21.19;100.00;99404.94;5026376;28;19984;-73
2023/07/28 01:55:18;;;;;;;;;;;;;;;21.14;100.00;99407.41;5026941;28;21293;-73
2023/07/28 01:57:50;;;;;;;;;;;;;;;21.08;100.00;99405.59;5013095;28;19921;-72
2023/07/28 02:00:16;;;;;;;;;;;;;;;20.93;100.00;99399.66;5029451;28;20289;-73
2023/07/28 02:02:41;;;;;;;;;;;;;;;20.76;100.00;99404.69;5027364;28;19929;-74
2023/07/28 02:05:07;;;;;;;;;;;;;;;20.56;100.00;99403.94;5028491;28;19921;-76
2023/07/28 02:07:32;;;;;;;;;;;;;;;20.53;100.00;99398.97;5011256;28;19921;-77
2023/07/28 02:09:57;;;;;;;;;;;;;;;20.57;100.00;99395.66;5027955;28;19921;-76
2023/07/28 02:12:23;;;;;;;;;;;;;;;20.63;100.00;99400.19;5026909;28;19925;-75
2023/07/28 02:14:49;;;;;;;;;;;;;;;20.65;100.00;99398.13;5027199;28;20361;-75
2023/07/28 02:17:14;;;;;;;;;;;;;;;20.61;100.00;99396.91;5028774;28;19921;-75
2023/07/28 02:19:39;;;;;;;;;;;;;;;20.71;100.00;99399.13;5012566;28;19921;-76
2023/07/28 02:22:05;;;;;;;;;;;;;;;20.74;100.00;99396.84;5026057;28;20610;-75
2023/07/28 02:24:30;;;;;;;;;;;;;;;20.78;100.00;99392.72;5028860;28;19928;-75
2023/07/28 02:26:56;;;;;;;;;;;;;;;20.74;100.00;99380.75;5027327;28;19924;-75
2023/07/28 02:29:25;;;;;;;;;;;;;;;20.69;100.00;99377.88;5010284;28;19929;-75
2023/07/28 02:31:50;;;;;;;;;;;;;;;20.66;100.00;99381.00;5013083;28;19921;-75
2023/07/28 02:34:15;;;;;;;;;;;;;;;20.64;100.00;99377.69;5026459;28;19927;-75
2023/07/28 02:36:41;;;;;;;;;;;;;;;20.56;100.00;99377.91;5025343;28;19928;-74
2023/07/28 02:39:06;;;;;;;;;;;;;;;20.53;100.00;99386.41;5029175;28;19924;-75
2023/07/28 02:41:32;;;;;;;;;;;;;;;20.43;100.00;99388.72;5024858;28;19925;-75
2023/07/28 02:43:57;;;;;;;;;;;;;;;20.24;100.00;99395.72;5010539;28;19921;-74
2023/07/28 02:46:23;;;;;;;;;;;;;;;20.20;100.00;99393.66;5027151;28;19971;-75
2023/07/28 02:48:48;;;;;;;;;;;;;;;20.17;100.00;99383.34;5027447;28;19975;-74
2023/07/28 02:51:13;;;;;;;;;;;;;;;20.04;100.00;99384.19;5028727;28;19921;-75
2023/07/28 02:53:39;;;;;;;;;;;;;;;20.07;100.00;99382.97;5025903;28;19982;-75
2023/07/28 02:56:04;;;;;;;;;;;;;;;20.06;100.00;99381.31;5008430;28;19928;-76
2023/07/28 02:58:30;;;;;;;;;;;;;;;20.04;100.00;99368.94;5029224;28;19925;-74
2023/07/28 03:00:55;;;;;;;;;;;;;;;20.10;100.00;99361.09;5027436;28;19925;-75
2023/07/28 03:03:29;;;;;;;;;;;;;;;20.09;100.00;99370.19;5005962;28;19928;-75
2023/07/28 03:05:54;;;;;;;;;;;;;;;20.02;100.00;99379.06;5030251;28;19941;-74
2023/07/28 03:08:25;;;;;;;;;;;;;;;19.97;100.00;99376.16;5018903;28;19921;-75
2023/07/28 03:10:58;;;;;;;;;;;;;;;19.93;100.00;99372.25;5012535;28;19928;-75
2023/07/28 03:13:24;;;;;;;;;;;;;;;19.95;100.00;99383.59;5005675;28;19925;-74
2023/07/28 03:15:49;;;;;;;;;;;;;;;19.87;100.00;99381.13;5027547;28;19913;-76
2023/07/28 03:18:16;;;;;;;;;;;;;;;19.87;100.00;99393.69;5009368;28;19944;-75
2023/07/28 03:20:42;;;;;;;;;;;;;;;19.86;100.00;99387.50;5014215;28;20385;-74
2023/07/28 03:23:07;;;;;;;;;;;;;;;19.92;100.00;99380.50;5030967;28;19921;-75
2023/07/28 03:25:34;;;;;;;;;;;;;;;19.96;100.00;99381.75;5016190;28;19925;-75
2023/07/28 03:27:59;;;;;;;;;;;;;;;19.97;100.00;99384.19;5010465;28;20335;-74
2023/07/28 03:30:24;;;;;;;;;;;;;;;19.96;100.00;99390.59;5032688;28;20000;-75
2023/07/28 03:32:50;;;;;;;;;;;;;;;20.02;100.00;99383.59;5031105;28;19921;-75
2023/07/28 03:35:16;;;;;;;;;;;;;;;20.06;100.00;99373.28;5030247;28;19951;-75
2023/07/28 03:37:48;;;;;;;;;;;;;;;20.02;100.00;99365.66;5011334;28;20355;-75
2023/07/28 03:40:13;;;;;;;;;;;;;;;19.98;100.00;99369.78;5030240;28;19968;-75
2023/07/28 03:42:46;;;;;;;;;;;;;;;19.94;100.00;99373.91;5010671;28;19922;-76
2023/07/28 03:45:12;;;;;;;;;;;;;;;19.93;100.00;99369.56;5014897;28;19927;-74
2023/07/28 03:47:39;;;;;;;;;;;;;;;19.90;100.00;99367.31;5030018;28;19944;-75
2023/07/28 03:50:05;;;;;;;;;;;;;;;19.92;100.00;99362.56;5031673;28;19964;-75
2023/07/28 03:52:30;;;;;;;;;;;;;;;19.82;100.00;99359.50;5014220;28;19949;-75
2023/07/28 03:54:56;;;;;;;;;;;;;;;19.62;100.00;99359.47;5030665;28;19921;-75
2023/07/28 03:57:21;;;;;;;;;;;;;;;19.62;100.00;99366.69;5012450;28;19921;-75
2023/07/28 03:59:46;;;;;;;;;;;;;;;19.43;100.00;99371.00;5032745;28;19971;-75
2023/07/28 04:02:12;;;;;;;;;;;;;;;19.41;100.00;99366.84;5009502;28;19971;-74
2023/07/28 04:04:37;;;;;;;;;;;;;;;19.41;100.00;99372.22;5030658;28;19921;-75
2023/07/28 04:07:03;;;;;;;;;;;;;;;19.28;100.00;99378.34;5027694;28;19963;-75
2023/07/28 04:09:29;;;;;;;;;;;;;;;19.35;100.00;99373.03;5030839;28;19921;-74
2023/07/28 04:11:54;;;;;;;;;;;;;;;19.41;100.00;99378.38;5007460;28;19924;-76
2023/07/28 04:14:19;;;;;;;;;;;;;;;19.44;100.00;99387.88;5029761;28;20263;-75
2023/07/28 04:16:45;;;;;;;;;;;;;;;19.37;100.00;99376.31;5029355;28;19921;-74
2023/07/28 04:19:12;;;;;;;;;;;;;;;19.31;100.00;99366.44;5015209;28;20324;-74
2023/07/28 04:21:40;;;;;;;;;;;;;;;19.25;100.00;99370.75;5027140;28;19921;-75
2023/07/28 04:24:09;;;;;;;;;;;;;;;19.17;100.00;99382.47;5031913;28;20316;-75
2023/07/28 04:26:39;;;;;;;;;;;;;;;19.09;100.00;99379.13;5027490;28;19929;-75
2023/07/28 04:29:04;;;;;;;;;;;;;;;19.05;100.00;99367.19;5012626;28;19921;-75
2023/07/28 04:31:30;;;;;;;;;;;;;;;18.99;100.00;99368.81;5012265;28;20435;-74
2023/07/28 04:34:03;;;;;;;;;;;;;;;19.07;100.00;99365.97;5011541;28;19987;-74
2023/07/28 04:36:44;;;;;;;;;;;;;;;19.16;100.00;99377.31;5024510;28;20259;-74
2023/07/28 04:39:10;;;;;;;;;;;;;;;19.18;100.00;99373.41;5012890;28;19921;-75
2023/07/28 04:41:36;;;;;;;;;;;;;;;19.17;100.00;99382.47;5027579;28;19921;-75
2023/07/28 04:44:01;;;;;;;;;;;;;;;19.25;100.00;99389.47;5029084;28;19928;-74
2023/07/28 04:46:31;;;;;;;;;;;;;;;19.27;100.00;99398.09;5027200;28;20302;-73
2023/07/28 04:48:56;;;;;;;;;;;;;;;19.31;100.00;99398.53;5010450;28;19921;-74
2023/07/28 04:51:42;;;;;;;;;;;;;;;19.15;100.00;99405.91;5031290;28;19928;-73
2023/07/28 04:54:26;;;;;;;;;;;;;;;18.93;100.00;99407.06;5026038;28;19928;-74
2023/07/28 04:56:52;;;;;;;;;;;;;;;18.73;100.00;99406.16;5028947;28;19929;-74
2023/07/28 04:59:19;;;;;;;;;;;;;;;18.77;100.00;99407.41;5014960;28;20109;-75
2023/07/28 05:01:45;;;;;;;;;;;;;;;18.80;100.00;99401.66;5010776;28;20015;-75
2023/07/28 05:04:10;;;;;;;;;;;;;;;18.73;100.00;99406.16;5029708;28;20010;-75
2023/07/28 05:06:36;;;;;;;;;;;;;;;18.73;100.00;99412.31;5013638;28;19927;-75
2023/07/28 05:09:02;;;;;;;;;;;;;;;18.72;100.00;99408.00;5025461;28;19921;-75
2023/07/28 05:11:36;;;;;;;;;;;;;;;18.77;100.00;99410.09;5029211;28;20277;-74
2023/07/28 05:14:01;;;;;;;;;;;;;;;18.83;100.00;99406.63;5026319;28;19928;-74
2023/07/28 05:16:28;;;;;;;;;;;;;;;18.87;100.00;99407.84;5010641;28;19921;-77
2023/07/28 05:19:03;;;;;;;;;;;;;;;18.98;100.00;99404.59;5026898;28;19921;-75
2023/07/28 05:21:47;;;;;;;;;;;;;;;19.06;100.00;99409.78;5026028;28;19927;-76
2023/07/28 05:24:14;;;;;;;;;;;;;;;19.13;100.00;99412.50;5027307;28;19920;-76
2023/07/28 05:26:40;;;;;;;;;;;;;;;19.10;100.00;99421.72;5029114;28;20328;-78
2023/07/28 05:29:06;;;;;;;;;;;;;;;19.07;100.00;99414.13;5019842;28;19991;-75
2023/07/28 05:31:31;;;;;;;;;;;;;;;19.12;100.00;99422.34;5006417;28;19940;-75
2023/07/28 05:33:57;;;;;;;;;;;;;;;19.16;100.00;99423.59;5011163;28;19969;-74
2023/07/28 05:36:23;;;;;;;;;;;;;;;19.21;100.00;99415.78;5008865;28;20025;-75
2023/07/28 05:38:50;;;;;;;;;;;;;;;19.21;100.00;99413.13;5008596;28;20364;-76
2023/07/28 05:41:16;;;;;;;;;;;;;;;19.28;100.00;99420.34;5008384;28;19921;-75
2023/07/28 05:43:44;;;;;;;;;;;;;;;19.35;100.00;99416.66;5002581;28;19925;-74
2023/07/28 05:46:09;;;;;;;;;;;;;;;19.44;100.00;99420.00;5008010;28;19921;-75
2023/07/28 05:48:36;;;;;;;;;;;;;;;19.52;100.00;99422.47;5005084;28;19931;-74
2023/07/28 05:51:01;;;;;;;;;;;;;;;19.61;100.00;99421.28;5006809;28;19916;-75
2023/07/28 05:53:27;;;;;;;;;;;;;;;19.70;100.00;99419.22;5007917;28;19925;-74
2023/07/28 05:55:58;;;;;;;;;;;;;;;19.79;100.00;99418.00;5008821;28;19975;-75
2023/07/28 05:58:25;;;;;;;;;;;;;;;19.84;100.00;99416.34;5011468;28;20031;-74
2023/07/28 06:00:51;;;;;;;;;;;;;;;19.87;100.00;99415.94;5003601;28;19925;-75
2023/07/28 06:03:36;;;;;;;;;;;;;;;19.87;100.00;99423.97;5025809;28;19921;-74
2023/07/28 06:06:12;;;;;;;;;;;;;;;19.95;100.00;99418.41;5007110;28;20383;-74
2023/07/28 06:08:37;;;;;;;;;;;;;;;20.06;100.00;99418.81;5022261;28;19935;-74
2023/07/28 06:11:05;;;;;;;;;;;;;;;20.09;100.00;99423.78;5027434;28;19972;-76
2023/07/28 06:13:30;;;;;;;;;;;;;;;20.10;100.00;99420.88;5020580;28;19991;-76
2023/07/28 06:15:58;;;;;;;;;;;;;;;20.15;100.00;99430.94;5022649;28;19941;-75
2023/07/28 06:18:26;;;;;;;;;;;;;;;20.14;100.00;99432.00;5010372;28;19960;-73
2023/07/28 06:21:03;;;;;;;;;;;;;;;20.29;100.00;99435.28;5004208;28;19960;-76
2023/07/28 06:23:29;;;;;;;;;;;;;;;20.35;100.00;99442.50;5025276;28;19961;-76
2023/07/28 06:25:56;;;;;;;;;;;;;;;20.40;100.00;99448.06;5025674;28;20447;-76
2023/07/28 06:28:21;;;;;;;;;;;;;;;20.49;100.00;99441.47;5008872;28;19921;-75
2023/07/28 06:30:47;;;;;;;;;;;;;;;20.59;100.00;99438.34;5026471;28;19921;-74
2023/07/28 06:33:12;;;;;;;;;;;;;;;20.72;100.00;99435.63;5023488;28;19929;-74
2023/07/28 06:35:38;;;;;;;;;;;;;;;20.81;100.00;99435.19;5044775;22;19928;-74
2023/07/28 06:38:04;;;;;;;;;;;;;;;20.94;100.00;99428.13;5062450;28;19931;-80
2023/07/28 06:40:29;;;;;;;;;;;;;;;21.06;100.00;99442.53;5063554;28;20447;-77
2023/07/28 06:42:54;;;;;;;;;;;;;;;21.13;100.00;99436.09;5043648;28;20397;-80
2023/07/28 06:45:20;;;;;;;;;;;;;;;21.20;100.00;99438.78;5063625;28;19921;-77
2023/07/28 06:47:46;;;;;;;;;;;;;;;21.26;100.00;99443.28;5060358;28;19970;-78
2023/07/28 06:50:11;;;;;;;;;;;;;;;21.32;100.00;99442.44;5066778;28;19973;-78
2023/07/28 06:52:38;;;;;;;;;;;;;;;21.36;100.00;99438.28;5068376;28;20322;-78
2023/07/28 06:55:03;;;;;;;;;;;;;;;21.37;100.00;99439.94;5044125;28;19920;-79
2023/07/28 06:57:30;;;;;;;;;;;;;;;21.43;100.00;99441.75;5048587;28;19920;-77
2023/07/28 06:59:55;;;;;;;;;;;;;;;21.50;100.00;99445.19;5069993;28;19920;-76
2023/07/28 07:02:21;;;;;;;;;;;;;;;21.51;100.00;99457.59;5067182;28;19992;-78
2023/07/28 07:04:46;;;;;;;;;;;;;;;21.52;100.00;99453.03;5051572;28;19952;-78
2023/07/28 07:07:11;;;;;;;;;;;;;;;21.61;100.00;99449.91;5050850;28;19921;-78
2023/07/28 07:09:37;;;;;;;;;;;;;;;21.71;100.00;99451.28;5070375;28;19920;-74
2023/07/28 07:12:03;;;;;;;;;;;;;;;21.78;100.00;99441.31;5070403;28;20012;-78
2023/07/28 07:14:28;;;;;;;;;;;;;;;21.85;100.00;99442.09;5034582;28;19921;-78
2023/07/28 07:16:53;;;;;;;;;;;;;;;21.93;100.00;99439.13;5067519;28;19935;-77
2023/07/28 07:19:19;;;;;;;;;;;;;;;21.92;100.00;99430.25;5072780;28;20432;-77
2023/07/28 07:21:44;;;;;;;;;;;;;;;22.01;100.00;99431.66;5047802;28;19920;-78
2023/07/28 07:24:13;;;;;;;;;;;;;;;22.09;100.00;99438.59;5070702;28;19925;-78
2023/07/28 07:26:38;;;;;;;;;;;;;;;22.14;100.00;99444.16;5070571;28;20445;-77
2023/07/28 07:29:04;;;;;;;;;;;;;;;22.18;100.00;99448.06;5069210;28;19924;-77
2023/07/28 07:31:29;;;;;;;;;;;;;;;22.21;100.00;99452.97;5068624;28;19925;-78
2023/07/28 07:33:54;;;;;;;;;;;;;;;22.16;100.00;99455.50;5072349;28;19920;-78
2023/07/28 07:36:20;;;;;;;;;;;;;;;22.23;100.00;99455.44;5066468;28;19921;-78
2023/07/28 07:38:46;;;;;;;;;;;;;;;22.31;100.00;99442.56;5070706;28;20015;-78
2023/07/28 07:41:12;;;;;;;;;;;;;;;22.40;100.00;99451.16;5068173;28;19921;-78
2023/07/28 07:43:38;;;;;;;;;;;;;;;22.42;99.03;99449.91;5070247;28;19927;-78
2023/07/28 07:46:03;;;;;;;;;;;;;;;22.42;99.09;99455.28;5070183;28;20007;-78
2023/07/28 07:48:28;;;;;;;;;;;;;;;22.44;98.83;99455.84;5069317;28;19982;-78
2023/07/28 07:50:54;;;;;;;;;;;;;;;22.51;99.26;99458.47;5068364;28;19935;-78
2023/07/28 07:53:20;;;;;;;;;;;;;;;22.59;99.28;99466.28;5073188;28;20391;-76
2023/07/28 07:55:45;;;;;;;;;;;;;;;22.66;98.71;99463.53;5048455;28;19928;-77
2023/07/28 07:58:10;;;;;;;;;;;;;;;22.71;99.00;99452.91;5070631;28;19963;-77
2023/07/28 08:00:38;;;;;;;;;;;;;;;22.79;98.80;99449.97;5067298;28;19920;-78
2023/07/28 08:03:04;;;;;;;;;;;;;;;22.89;99.83;99449.44;5069919;28;19920;-78
2023/07/28 08:05:30;;;;;;;;;;;;;;;22.92;100.00;99449.78;5066005;28;20010;-78
2023/07/28 08:07:55;;;;;;;;;;;;;;;23.03;100.00;99445.53;5050467;28;20023;-78
2023/07/28 08:10:20;;;;;;;;;;;;;;;23.14;100.00;99442.09;5067348;28;20008;-78
2023/07/28 08:12:47;;;;;;;;;;;;;;;23.22;100.00;99447.97;5070849;28;19925;-78
2023/07/28 08:15:12;;;;;;;;;;;;;;;23.22;100.00;99445.28;5065134;28;19971;-78
2023/07/28 08:17:38;;;;;;;;;;;;;;;23.24;100.00;99442.38;5070391;28;20031;-78
2023/07/28 08:20:04;;;;;;;;;;;;;;;23.28;99.26;99441.69;5067622;28;19974;-78
2023/07/28 08:22:29;;;;;;;;;;;;;;;23.30;97.00;99443.31;5060922;28;20014;-78
2023/07/28 08:24:54;;;;;;;;;;;;;;;23.32;96.34;99443.94;5068570;28;20442;-79
2023/07/28 08:27:20;;;;;;;;;;;;;;;23.37;94.64;99436.81;5071725;28;19928;-78
2023/07/28 08:29:45;;;;;;;;;;;;;;;23.42;94.85;99434.25;5065410;28;19951;-76
2023/07/28 08:32:11;;;;;;;;;;;;;;;23.50;92.28;99443.91;5070718;28;19961;-77
2023/07/28 08:34:36;;;;;;;;;;;;;;;23.55;91.75;99444.03;5067932;28;19920;-79
2023/07/28 08:37:02;;;;;;;;;;;;;;;23.63;91.32;99446.41;5068030;28;19973;-78
2023/07/28 08:39:27;;;;;;;;;;;;;;;23.70;90.35;99457.91;5069446;28;19920;-78
2023/07/28 08:42:02;;;;;;;;;;;;;;;23.75;89.86;99449.94;5067306;28;19920;-78
2023/07/28 08:44:32;;;;;;;;;;;;;;;23.80;89.88;99452.75;5066414;28;19967;-78
2023/07/28 08:46:58;;;;;;;;;;;;;;;23.91;87.96;99451.19;5070676;28;19924;-79
2023/07/28 08:49:23;;;;;;;;;;;;;;;23.94;87.33;99448.81;5065117;28;20274;-79
2023/07/28 08:51:49;;;;;;;;;;;;;;;23.97;87.47;99448.38;5051689;28;19924;-78
2023/07/28 08:54:16;;;;;;;;;;;;;;;24.02;86.99;99445.81;5070446;28;19927;-79
2023/07/28 08:56:42;;;;;;;;;;;;;;;24.08;86.31;99442.19;5067964;28;20354;-78
2023/07/28 08:59:07;;;;;;;;;;;;;;;24.15;85.84;99443.94;5067794;28;19920;-78
2023/07/28 09:01:33;;;;;;;;;;;;;;;24.22;85.68;99450.88;5071121;28;20014;-79
2023/07/28 09:03:58;;;;;;;;;;;;;;;24.27;84.70;99452.91;5066961;28;20734;-78
2023/07/28 09:06:31;;;;;;;;;;;;;;;24.28;84.05;99460.72;5068698;28;20010;-79
2023/07/28 09:08:57;;;;;;;;;;;;;;;24.34;83.11;99458.97;5066543;28;19921;-79
2023/07/28 09:11:24;;;;;;;;;;;;;;;24.36;82.67;99460.38;5068024;28;19916;-78
2023/07/28 09:13:52;;;;;;;;;;;;;;;24.41;83.12;99459.69;5047055;28;19975;-78
2023/07/28 09:16:18;;;;;;;;;;;;;;;24.47;82.79;99464.13;5066104;28;19988;-78
2023/07/28 09:18:44;;;;;;;;;;;;;;;24.56;81.63;99456.53;5066460;28;19917;-77
2023/07/28 09:21:27;;;;;;;;;;;;;;;24.58;78.75;99460.59;5066792;28;19935;-80
2023/07/28 09:23:53;;;;;;;;;;;;;;;24.64;79.08;99459.66;5067131;28;20437;-79
2023/07/28 09:26:18;;;;;;;;;;;;;;;24.59;79.93;99456.84;5067604;28;19999;-77
2023/07/28 09:28:43;;;;;;;;;;;;;;;24.64;80.68;99458.84;5064856;28;19920;-78
2023/07/28 09:31:10;;;;;;;;;;;;;;;24.69;79.81;99450.84;5066585;28;20011;-78
2023/07/28 09:33:37;;;;;;;;;;;;;;;24.74;79.89;99443.69;5070444;28;20069;-78
2023/07/28 09:36:09;;;;;;;;;;;;;;;24.80;78.81;99440.03;5065106;28;19920;-79
2023/07/28 09:38:36;;;;;;;;;;;;;;;24.88;79.43;99441.56;5062682;28;19921;-79
2023/07/28 09:41:05;;;;;;;;;;;;;;;24.95;78.74;99438.75;5063499;28;20511;-78
2023/07/28 09:43:31;;;;;;;;;;;;;;;25.03;77.53;99436.53;5068195;28;20380;-80
2023/07/28 09:45:56;;;;;;;;;;;;;;;25.11;77.57;99432.59;5067694;28;19935;-79
2023/07/28 09:48:24;;;;;;;;;;;;;;;25.17;75.50;99434.34;5066766;28;20292;-79
2023/07/28 09:50:49;;;;;;;;;;;;;;;25.24;76.55;99437.72;5065971;28;19948;-79
2023/07/28 09:53:15;;;;;;;;;;;;;;;25.31;75.71;99433.00;5070130;28;19975;-79
2023/07/28 09:55:42;;;;;;;;;;;;;;;25.33;72.68;99436.28;5063824;28;20015;-79
2023/07/28 09:58:09;;;;;;;;;;;;;;;25.36;74.08;99440.38;5069038;28;19920;-79
2023/07/28 10:00:35;;;;;;;;;;;;;;;25.38;74.96;99444.50;5065883;28;19940;-78
2023/07/28 10:03:02;;;;;;;;;;;;;;;25.43;74.97;99444.59;5068666;28;19921;-79
2023/07/28 10:05:27;;;;;;;;;;;;;;;25.47;74.43;99443.03;5067299;28;19926;-78
2023/07/28 10:07:53;;;;;;;;;;;;;;;25.51;70.56;99438.78;5066308;28;20006;-79
2023/07/28 10:10:19;;;;;;;;;;;;;;;25.55;70.45;99439.97;5065561;28;19983;-78
2023/07/28 10:12:49;;;;;;;;;;;;;;;25.59;69.85;99424.91;5068993;28;20399;-78
2023/07/28 10:15:16;;;;;;;;;;;;;;;25.64;70.16;99427.72;5062739;28;19944;-79
2023/07/28 10:17:47;;;;;;;;;;;;;;;25.68;66.53;99434.25;5067450;28;19920;-78
2023/07/28 10:20:31;;;;;;;;;;;;;;;25.71;67.01;99438.38;5065098;28;19920;-79
2023/07/28 10:23:07;;;;;;;;;;;;;;;25.78;68.75;99422.00;5063679;28;19931;-79
2023/07/28 10:25:34;;;;;;;;;;;;;;;25.87;70.14;99420.50;5059838;28;19924;-80
2023/07/28 10:27:59;;;;;;;;;;;;;;;25.94;69.59;99426.59;5066398;28;19924;-80
2023/07/28 10:30:24;;;;;;;;;;;;;;;25.98;69.42;99417.72;4708981;28;9999654;-78
2023/07/28 10:32:50;;;;;;;;;;;;;;;25.99;66.89;99418.56;5060979;28;19967;-77
2023/07/28 10:35:21;;;;;;;;;;;;;;;26.03;68.69;99419.72;5063309;28;19920;-77
2023/07/28 10:37:47;;;;;;;;;;;;;;;26.13;69.14;99414.47;5063505;28;19924;-77
2023/07/28 10:40:35;;;;;;;;;;;;;;;26.16;69.16;99407.72;5060030;28;20669;-78
2023/07/28 10:43:02;;;;;;;;;;;;;;;26.19;68.87;99412.66;4698243;28;10000083;-77
2023/07/28 10:45:28;;;;;;;;;;;;;;;26.22;70.70;99412.97;5064479;28;19924;-76
2023/07/28 10:47:55;;;;;;;;;;;;;;;26.27;70.31;99414.97;5064685;28;20000;-77
2023/07/28 10:50:21;;;;;;;;;;;;;;;26.36;70.67;99408.06;5064440;28;19932;-76
2023/07/28 10:52:46;;;;;;;;;;;;;;;26.36;70.65;99408.88;5058317;28;19928;-77
2023/07/28 10:55:22;;;;;;;;;;;;;;;26.41;70.77;99414.38;5064213;28;20296;-77
2023/07/28 10:57:48;;;;;;;;;;;;;;;26.45;71.50;99404.69;5067402;28;19927;-76
2023/07/28 11:00:18;;;;;;;;;;;;;;;26.52;70.62;99407.22;5059751;28;19921;-77
2023/07/28 11:02:44;;;;;;;;;;;;;;;26.59;69.88;99409.72;5056578;28;19920;-75
2023/07/28 11:05:12;;;;;;;;;;;;;;;26.64;68.81;99394.38;5059947;28;19935;-76
2023/07/28 11:07:38;;;;;;;;;;;;;;;26.73;67.60;99394.78;5070007;28;19970;-76
2023/07/28 11:10:06;;;;;;;;;;;;;;;26.75;67.13;99392.63;5060094;28;20026;-79
2023/07/28 11:12:31;;;;;;;;;;;;;;;26.77;67.27;99390.50;5039728;28;20411;-78
2023/07/28 11:14:57;;;;;;;;;;;;;;;26.82;67.63;99385.13;5065167;28;19982;-78
2023/07/28 11:17:24;;;;;;;;;;;;;;;26.90;67.92;99392.84;5060144;28;19928;-77
2023/07/28 11:19:49;;;;;;;;;;;;;;;27.04;68.27;99388.66;5060430;28;19928;-77
2023/07/28 11:22:16;;;;;;;;;;;;;;;27.11;68.47;99385.75;5064761;28;19950;-76
2023/07/28 11:24:42;;;;;;;;;;;;;;;27.20;68.05;99387.78;5034441;28;19929;-80
2023/07/28 11:27:08;;;;;;;;;;;;;;;27.30;66.69;99371.63;5060213;28;19920;-80
2023/07/28 11:29:33;;;;;;;;;;;;;;;27.37;67.28;99378.72;5042456;28;20005;-78
2023/07/28 11:31:59;;;;;;;;;;;;;;;27.45;65.61;99372.84;5064977;28;20408;-81
2023/07/28 11:34:25;;;;;;;;;;;;;;;27.49;65.31;99373.97;5064012;28;20343;-80
2023/07/28 11:36:51;;;;;;;;;;;;;;;27.50;65.81;99379.16;5064728;28;19924;-80
2023/07/28 11:39:16;;;;;;;;;;;;;;;27.50;65.12;99370.19;5066307;28;20015;-79
2023/07/28 11:41:43;;;;;;;;;;;;;;;27.49;64.21;99366.66;5070366;28;19924;-80
2023/07/28 11:44:08;;;;;;;;;;;;;;;27.51;64.76;99367.22;5067948;28;20020;-81
2023/07/28 11:46:35;;;;;;;;;;;;;;;27.62;65.09;99365.47;5072194;28;20293;-80
2023/07/28 11:49:10;;;;;;;;;;;;;;;27.69;64.41;99363.31;5068653;28;19967;-80
2023/07/28 11:51:43;;;;;;;;;;;;;;;27.78;65.08;99360.97;5060646;28;19942;-79
2023/07/28 11:54:14;;;;;;;;;;;;;;;27.92;63.25;99357.53;5071888;28;20356;-80
2023/07/28 11:56:40;;;;;;;;;;;;;;;27.97;63.73;99360.31;5065137;28;20016;-80
2023/07/28 11:59:05;;;;;;;;;;;;;;;28.00;63.00;99359.78;5071271;28;20403;-79
2023/07/28 12:01:31;;;;;;;;;;;;;;;28.07;63.07;99359.56;5068974;28;19920;-80
2023/07/28 12:03:58;;;;;;;;;;;;;;;28.15;61.73;99355.56;5070507;28;20015;-79
2023/07/28 12:06:24;;;;;;;;;;;;;;;28.20;61.90;99344.75;5070204;28;19921;-80
2023/07/28 12:08:49;;;;;;;;;;;;;;;28.37;61.23;99334.53;5068312;28;20027;-81
2023/07/28 12:11:15;;;;;;;;;;;;;;;28.58;60.49;99338.13;5067954;28;19928;-80
2023/07/28 12:13:50;;;;;;;;;;;;;;;28.63;59.46;99338.97;5050023;28;20043;-80
2023/07/28 12:16:31;;;;;;;;;;;;;;;28.59;59.62;99327.03;5069712;28;19967;-81
2023/07/28 12:18:57;;;;;;;;;;;;;;;28.57;59.66;99341.97;5069854;28;19920;-79
2023/07/28 12:21:23;;;;;;;;;;;;;;;28.59;60.08;99339.78;5066290;28;19928;-80
2023/07/28 12:23:48;;;;;;;;;;;;;;;28.57;60.65;99331.88;5068165;28;20077;-80
2023/07/28 12:26:13;;;;;;;;;;;;;;;28.59;60.60;99329.72;5070928;28;20391;-82
2023/07/28 12:28:39;;;;;;;;;;;;;;;28.67;60.47;99323.81;5064674;28;20428;-81
2023/07/28 12:31:06;;;;;;;;;;;;;;;28.92;59.20;99311.41;5068349;28;20146;-81
2023/07/28 12:33:31;;;;;;;;;;;;;;;29.17;57.22;99308.72;5066859;28;19920;-80
2023/07/28 12:35:56;;;;;;;;;;;;;;;29.44;55.84;99313.97;5068054;28;19924;-80
2023/07/28 12:38:22;;;;;;;;;;;;;;;29.74;55.19;99313.94;5069635;28;19966;-79